Meteorological Aerodrome Report (METAR)

METAR

Data at: 0855 UTC 29 Jan 2020

METAR for:NVSC (Sola/Vanua Lava Arpt, --, NV)
Text:NVSC 290300Z 00000KT 9999 SCT018 OVC100 27/25 Q1009
Temperature: 27.0°C ( 81°F)
Dewpoint: 25.0°C ( 77°F) [RH = 89%]
Pressure (altimeter):29.79 inches Hg (1009.0 mb)
Winds:calm
Visibility:6 or more sm (10+ km)
Ceiling:10000 feet AGL
Clouds: scattered clouds at 1800 feet AGL, overcast cloud deck at 10000 feet AGL

METAR

Data at: 0855 UTC 29 Jan 2020

METAR for:NVSG (Longana Arpt, --, NV)
Text:NVSG 290600Z AUTO 19003KT //// // NCD 28/25 Q1009
Temperature: 28.0°C ( 82°F)
Dewpoint: 25.0°C ( 77°F) [RH = 84%]
Pressure (altimeter):29.79 inches Hg (1009.0 mb)
Winds:from the S (190 degrees) at 3 MPH (3 knots; 1.5 m/s)
Ceiling:at least 12,000 feet AGL
Clouds:sky clear below 12,000 feet AGL

METAR

Data at: 0855 UTC 29 Jan 2020

METAR for:NVSS (Santo/Pekoa Intl, --, NV)
Text:NVSS 290800Z 00000KT 9999 FEW015 SCT018 OVC110 27/25 Q1008
Temperature: 27.0°C ( 81°F)
Dewpoint: 25.0°C ( 77°F) [RH = 89%]
Pressure (altimeter):29.76 inches Hg (1008.0 mb)
Winds:calm
Visibility:6 or more sm (10+ km)
Ceiling:11000 feet AGL
Clouds: few clouds at 1500 feet AGL, scattered clouds at 1800 feet AGL, overcast cloud deck at 11000 feet AGL

METAR

Data at: 0855 UTC 29 Jan 2020

METAR for:NVSL (Malekula/Lamap, --, NV)
Text:NVSL 290600Z AUTO 11011KT //// // NCD 28/27 Q1008
Temperature: 28.0°C ( 82°F)
Dewpoint: 27.0°C ( 81°F) [RH = 94%]
Pressure (altimeter):29.76 inches Hg (1008.0 mb)
Winds:from the ESE (110 degrees) at 13 MPH (11 knots; 5.7 m/s)
Ceiling:at least 12,000 feet AGL
Clouds:sky clear below 12,000 feet AGL

METAR

Data at: 0855 UTC 29 Jan 2020

METAR for:NVSP (Norsup Arpt, --, NV)
Text:No data found

METAR

Data at: 0855 UTC 29 Jan 2020

METAR for:NVVV (Efate/Bauerfield Int, --, NV)
Text:NVVV 290800Z 03001KT 9999 FEW020 BKN120 26/23 Q1010
Temperature: 26.0°C ( 79°F)
Dewpoint: 23.0°C ( 73°F) [RH = 84%]
Pressure (altimeter):29.82 inches Hg (1010.0 mb)
Winds:from the NNE (30 degrees) at 1 MPH (1 knots; 0.5 m/s)
Visibility:6 or more sm (10+ km)
Ceiling:12000 feet AGL
Clouds: few clouds at 2000 feet AGL, broken clouds at 12000 feet AGL

METAR

Data at: 0855 UTC 29 Jan 2020

METAR for:NVVW (Tanna Arpt, --, NV)
Text:NVVW 290600Z 00000KT 9999 BKN022 OVC300 28/22 Q1008
Temperature: 28.0°C ( 82°F)
Dewpoint: 22.0°C ( 72°F) [RH = 70%]
Pressure (altimeter):29.76 inches Hg (1008.0 mb)
Winds:calm
Visibility:6 or more sm (10+ km)
Ceiling:2200 feet AGL
Clouds: broken clouds at 2200 feet AGL, overcast cloud deck at 30000 feet AGL

METAR

Data at: 0855 UTC 29 Jan 2020

METAR for:NVVA (Aneityum/Mystery Isl, --, NV)
Text:NVVA 290600Z 12003KT 9999 SCT020 BKN300 28/21 Q1010
Temperature: 28.0°C ( 82°F)
Dewpoint: 21.0°C ( 70°F) [RH = 66%]
Pressure (altimeter):29.82 inches Hg (1010.0 mb)
Winds:from the ESE (120 degrees) at 3 MPH (3 knots; 1.5 m/s)
Visibility:6 or more sm (10+ km)
Ceiling:30000 feet AGL
Clouds: scattered clouds at 2000 feet AGL, broken clouds at 30000 feet AGL

METAR

Data at: 0855 UTC 29 Jan 2020

NVVV 290800Z 03001KT 9999 FEW020 BKN120 26/23 Q1010
NVSC 290300Z 00000KT 9999 SCT018 OVC100 27/25 Q1009
NVSG 290600Z AUTO 19003KT //// // NCD 28/25 Q1009
NVSS 290800Z 00000KT 9999 FEW015 SCT018 OVC110 27/25 Q1008
NVSL 290600Z AUTO 11011KT //// // NCD 28/27 Q1008
No Data available for NVSP
NVVW 290600Z 00000KT 9999 BKN022 OVC300 28/22 Q1008
NVVA 290600Z 12003KT 9999 SCT020 BKN300 28/21 Q1010